sensor_id;sensor_type;location;lat;lon;timestamp;P1;durP1;ratioP1;P2;durP2;ratioP2
49880;SDS011;52691;54.130;16.178;2022-12-18T00:02:06;17.10;;;9.13;;
49880;SDS011;52691;54.130;16.178;2022-12-18T00:04:32;15.60;;;9.60;;
49880;SDS011;52691;54.130;16.178;2022-12-18T00:06:58;15.00;;;8.67;;
49880;SDS011;52691;54.130;16.178;2022-12-18T00:11:49;12.43;;;8.80;;
49880;SDS011;52691;54.130;16.178;2022-12-18T00:14:15;15.33;;;9.20;;
49880;SDS011;52691;54.130;16.178;2022-12-18T00:16:43;18.48;;;9.55;;
49880;SDS011;52691;54.130;16.178;2022-12-18T00:19:11;12.93;;;8.90;;
49880;SDS011;52691;54.130;16.178;2022-12-18T00:21:41;13.72;;;8.35;;
49880;SDS011;52691;54.130;16.178;2022-12-18T00:24:09;14.75;;;8.88;;
49880;SDS011;52691;54.130;16.178;2022-12-18T00:26:36;14.47;;;9.25;;
49880;SDS011;52691;54.130;16.178;2022-12-18T00:29:05;12.98;;;8.63;;
49880;SDS011;52691;54.130;16.178;2022-12-18T00:31:35;15.60;;;9.30;;
49880;SDS011;52691;54.130;16.178;2022-12-18T00:34:02;13.98;;;9.20;;
49880;SDS011;52691;54.130;16.178;2022-12-18T00:36:30;14.98;;;8.70;;
49880;SDS011;52691;54.130;16.178;2022-12-18T00:38:58;14.07;;;9.00;;
49880;SDS011;52691;54.130;16.178;2022-12-18T00:41:26;13.32;;;9.00;;
49880;SDS011;52691;54.130;16.178;2022-12-18T00:44:13;15.60;;;8.63;;
49880;SDS011;52691;54.130;16.178;2022-12-18T00:46:42;13.95;;;8.63;;
49880;SDS011;52691;54.130;16.178;2022-12-18T00:49:09;11.50;;;9.18;;
49880;SDS011;52691;54.130;16.178;2022-12-18T00:51:38;14.75;;;8.83;;
49880;SDS011;52691;54.130;16.178;2022-12-18T00:54:04;13.48;;;8.43;;
49880;SDS011;52691;54.130;16.178;2022-12-18T00:58:56;11.90;;;7.93;;
49880;SDS011;52691;54.130;16.178;2022-12-18T01:03:47;11.83;;;7.70;;
49880;SDS011;52691;54.130;16.178;2022-12-18T01:06:14;11.95;;;8.35;;
49880;SDS011;52691;54.130;16.178;2022-12-18T01:08:41;13.95;;;8.48;;
49880;SDS011;52691;54.130;16.178;2022-12-18T01:13:35;11.25;;;7.58;;
49880;SDS011;52691;54.130;16.178;2022-12-18T01:18:27;11.27;;;7.97;;
49880;SDS011;52691;54.130;16.178;2022-12-18T01:20:53;12.25;;;8.03;;
49880;SDS011;52691;54.130;16.178;2022-12-18T01:25:44;11.20;;;7.63;;
49880;SDS011;52691;54.130;16.178;2022-12-18T01:30:36;11.33;;;7.85;;
49880;SDS011;52691;54.130;16.178;2022-12-18T01:35:29;10.50;;;7.12;;
49880;SDS011;52691;54.130;16.178;2022-12-18T01:37:56;14.93;;;8.67;;
49880;SDS011;52691;54.130;16.178;2022-12-18T01:40:22;11.10;;;7.50;;
49880;SDS011;52691;54.130;16.178;2022-12-18T01:42:51;12.30;;;7.92;;
49880;SDS011;52691;54.130;16.178;2022-12-18T01:48:03;10.60;;;8.00;;
49880;SDS011;52691;54.130;16.178;2022-12-18T01:50:36;11.65;;;8.48;;
49880;SDS011;52691;54.130;16.178;2022-12-18T01:53:07;10.72;;;7.60;;
49880;SDS011;52691;54.130;16.178;2022-12-18T01:55:43;12.18;;;8.00;;
49880;SDS011;52691;54.130;16.178;2022-12-18T01:58:19;10.03;;;8.07;;
49880;SDS011;52691;54.130;16.178;2022-12-18T02:00:47;12.10;;;8.00;;
49880;SDS011;52691;54.130;16.178;2022-12-18T02:03:13;12.17;;;7.33;;
49880;SDS011;52691;54.130;16.178;2022-12-18T02:11:42;9.03;;;7.40;;
49880;SDS011;52691;54.130;16.178;2022-12-18T02:14:27;9.55;;;7.17;;
49880;SDS011;52691;54.130;16.178;2022-12-18T02:17:25;10.95;;;7.95;;
49880;SDS011;52691;54.130;16.178;2022-12-18T02:20:07;10.48;;;8.10;;
49880;SDS011;52691;54.130;16.178;2022-12-18T02:22:55;10.95;;;7.40;;
49880;SDS011;52691;54.130;16.178;2022-12-18T02:28:11;10.60;;;7.65;;
49880;SDS011;52691;54.130;16.178;2022-12-18T02:30:40;10.95;;;7.75;;
49880;SDS011;52691;54.130;16.178;2022-12-18T02:33:08;10.28;;;7.08;;
49880;SDS011;52691;54.130;16.178;2022-12-18T02:35:37;10.00;;;7.45;;
49880;SDS011;52691;54.130;16.178;2022-12-18T02:38:05;11.08;;;7.28;;
49880;SDS011;52691;54.130;16.178;2022-12-18T02:40:31;9.40;;;7.17;;
49880;SDS011;52691;54.130;16.178;2022-12-18T02:45:45;9.23;;;6.70;;
49880;SDS011;52691;54.130;16.178;2022-12-18T02:48:21;10.38;;;7.30;;
49880;SDS011;52691;54.130;16.178;2022-12-18T02:53:51;9.58;;;7.05;;
49880;SDS011;52691;54.130;16.178;2022-12-18T02:56:26;8.35;;;7.00;;
49880;SDS011;52691;54.130;16.178;2022-12-18T02:58:55;9.23;;;7.03;;
49880;SDS011;52691;54.130;16.178;2022-12-18T03:01:38;9.63;;;6.75;;
49880;SDS011;52691;54.130;16.178;2022-12-18T03:06:59;12.30;;;6.72;;
49880;SDS011;52691;54.130;16.178;2022-12-18T03:09:36;9.25;;;7.12;;
49880;SDS011;52691;54.130;16.178;2022-12-18T03:12:15;8.33;;;6.78;;
49880;SDS011;52691;54.130;16.178;2022-12-18T03:14:53;10.90;;;7.30;;
49880;SDS011;52691;54.130;16.178;2022-12-18T03:17:19;9.73;;;7.05;;
49880;SDS011;52691;54.130;16.178;2022-12-18T03:19:48;9.28;;;7.15;;
49880;SDS011;52691;54.130;16.178;2022-12-18T03:22:16;10.10;;;7.08;;
49880;SDS011;52691;54.130;16.178;2022-12-18T03:24:44;8.83;;;6.70;;
49880;SDS011;52691;54.130;16.178;2022-12-18T03:27:13;9.85;;;6.90;;
49880;SDS011;52691;54.130;16.178;2022-12-18T03:29:44;8.90;;;6.97;;
49880;SDS011;52691;54.130;16.178;2022-12-18T03:32:27;9.75;;;6.50;;
49880;SDS011;52691;54.130;16.178;2022-12-18T03:34:57;8.60;;;6.80;;
49880;SDS011;52691;54.130;16.178;2022-12-18T03:37:27;8.20;;;6.62;;
49880;SDS011;52691;54.130;16.178;2022-12-18T03:39:55;9.48;;;7.05;;
49880;SDS011;52691;54.130;16.178;2022-12-18T03:42:24;8.37;;;6.57;;
49880;SDS011;52691;54.130;16.178;2022-12-18T03:48:01;9.53;;;6.78;;
49880;SDS011;52691;54.130;16.178;2022-12-18T03:50:44;8.73;;;6.60;;
49880;SDS011;52691;54.130;16.178;2022-12-18T03:53:17;9.05;;;6.42;;
49880;SDS011;52691;54.130;16.178;2022-12-18T03:56:00;8.55;;;6.30;;
49880;SDS011;52691;54.130;16.178;2022-12-18T03:58:27;8.80;;;6.65;;
49880;SDS011;52691;54.130;16.178;2022-12-18T04:00:55;8.30;;;6.65;;
49880;SDS011;52691;54.130;16.178;2022-12-18T04:03:25;8.98;;;6.58;;
49880;SDS011;52691;54.130;16.178;2022-12-18T04:05:54;8.10;;;6.33;;
49880;SDS011;52691;54.130;16.178;2022-12-18T04:08:21;9.10;;;6.85;;
49880;SDS011;52691;54.130;16.178;2022-12-18T04:10:48;8.50;;;6.60;;
49880;SDS011;52691;54.130;16.178;2022-12-18T04:15:48;8.65;;;6.95;;
49880;SDS011;52691;54.130;16.178;2022-12-18T04:18:14;9.00;;;6.70;;
49880;SDS011;52691;54.130;16.178;2022-12-18T04:23:06;7.57;;;6.47;;
49880;SDS011;52691;54.130;16.178;2022-12-18T04:25:31;8.50;;;6.57;;
49880;SDS011;52691;54.130;16.178;2022-12-18T04:30:23;8.40;;;6.47;;
49880;SDS011;52691;54.130;16.178;2022-12-18T04:35:14;7.63;;;5.97;;
49880;SDS011;52691;54.130;16.178;2022-12-18T04:37:40;7.27;;;6.10;;
49880;SDS011;52691;54.130;16.178;2022-12-18T04:40:06;8.53;;;6.20;;
49880;SDS011;52691;54.130;16.178;2022-12-18T04:42:33;7.53;;;6.15;;
49880;SDS011;52691;54.130;16.178;2022-12-18T04:47:25;8.17;;;6.13;;
49880;SDS011;52691;54.130;16.178;2022-12-18T04:52:16;8.33;;;6.17;;
49880;SDS011;52691;54.130;16.178;2022-12-18T04:54:42;8.07;;;5.63;;
49880;SDS011;52691;54.130;16.178;2022-12-18T04:57:08;8.87;;;6.47;;
49880;SDS011;52691;54.130;16.178;2022-12-18T04:59:34;8.08;;;6.22;;
49880;SDS011;52691;54.130;16.178;2022-12-18T05:02:00;7.95;;;6.42;;
49880;SDS011;52691;54.130;16.178;2022-12-18T05:04:26;8.00;;;6.23;;
49880;SDS011;52691;54.130;16.178;2022-12-18T05:06:52;7.90;;;5.57;;
49880;SDS011;52691;54.130;16.178;2022-12-18T05:11:44;7.20;;;5.73;;
49880;SDS011;52691;54.130;16.178;2022-12-18T05:16:36;7.33;;;5.85;;
49880;SDS011;52691;54.130;16.178;2022-12-18T05:21:27;7.70;;;5.60;;
49880;SDS011;52691;54.130;16.178;2022-12-18T05:26:18;7.53;;;5.70;;
49880;SDS011;52691;54.130;16.178;2022-12-18T05:28:44;6.77;;;5.57;;
49880;SDS011;52691;54.130;16.178;2022-12-18T05:31:11;7.80;;;6.47;;
49880;SDS011;52691;54.130;16.178;2022-12-18T05:33:37;7.22;;;6.17;;
49880;SDS011;52691;54.130;16.178;2022-12-18T05:36:03;8.07;;;6.20;;
49880;SDS011;52691;54.130;16.178;2022-12-18T05:38:32;7.05;;;5.85;;
49880;SDS011;52691;54.130;16.178;2022-12-18T05:41:00;6.87;;;5.67;;
49880;SDS011;52691;54.130;16.178;2022-12-18T05:43:27;7.05;;;5.95;;
49880;SDS011;52691;54.130;16.178;2022-12-18T05:45:54;6.95;;;5.55;;
49880;SDS011;52691;54.130;16.178;2022-12-18T05:48:21;6.78;;;5.53;;
49880;SDS011;52691;54.130;16.178;2022-12-18T05:50:47;6.17;;;5.47;;
49880;SDS011;52691;54.130;16.178;2022-12-18T05:53:16;6.95;;;5.47;;
49880;SDS011;52691;54.130;16.178;2022-12-18T05:55:44;8.40;;;6.50;;
49880;SDS011;52691;54.130;16.178;2022-12-18T05:58:11;6.80;;;5.80;;
49880;SDS011;52691;54.130;16.178;2022-12-18T06:00:40;6.60;;;5.67;;
49880;SDS011;52691;54.130;16.178;2022-12-18T06:03:09;7.78;;;5.83;;
49880;SDS011;52691;54.130;16.178;2022-12-18T06:05:42;7.47;;;5.78;;
49880;SDS011;52691;54.130;16.178;2022-12-18T06:08:06;6.37;;;5.55;;
49880;SDS011;52691;54.130;16.178;2022-12-18T06:10:33;6.80;;;5.33;;
49880;SDS011;52691;54.130;16.178;2022-12-18T06:15:25;7.28;;;5.15;;
49880;SDS011;52691;54.130;16.178;2022-12-18T06:20:16;6.37;;;4.80;;
49880;SDS011;52691;54.130;16.178;2022-12-18T06:22:43;6.22;;;5.47;;
49880;SDS011;52691;54.130;16.178;2022-12-18T06:27:34;6.47;;;5.23;;
49880;SDS011;52691;54.130;16.178;2022-12-18T06:32:26;6.80;;;4.67;;
49880;SDS011;52691;54.130;16.178;2022-12-18T06:34:52;8.38;;;5.45;;
49880;SDS011;52691;54.130;16.178;2022-12-18T06:37:20;6.75;;;5.45;;
49880;SDS011;52691;54.130;16.178;2022-12-18T06:39:47;6.95;;;5.12;;
49880;SDS011;52691;54.130;16.178;2022-12-18T06:44:38;10.30;;;5.20;;
49880;SDS011;52691;54.130;16.178;2022-12-18T06:49:29;7.97;;;5.20;;
49880;SDS011;52691;54.130;16.178;2022-12-18T06:51:55;8.17;;;5.60;;
49880;SDS011;52691;54.130;16.178;2022-12-18T06:54:21;8.10;;;5.27;;
49880;SDS011;52691;54.130;16.178;2022-12-18T06:59:13;6.50;;;5.17;;
49880;SDS011;52691;54.130;16.178;2022-12-18T07:01:39;11.20;;;5.83;;
49880;SDS011;52691;54.130;16.178;2022-12-18T07:04:05;10.40;;;5.27;;
49880;SDS011;52691;54.130;16.178;2022-12-18T07:06:33;8.40;;;5.58;;
49880;SDS011;52691;54.130;16.178;2022-12-18T07:11:25;6.90;;;5.10;;
49880;SDS011;52691;54.130;16.178;2022-12-18T07:13:51;8.30;;;5.77;;
49880;SDS011;52691;54.130;16.178;2022-12-18T07:16:19;18.48;;;6.03;;
49880;SDS011;52691;54.130;16.178;2022-12-18T07:18:46;9.53;;;5.62;;
49880;SDS011;52691;54.130;16.178;2022-12-18T07:21:13;6.93;;;5.30;;
49880;SDS011;52691;54.130;16.178;2022-12-18T07:23:42;10.58;;;5.45;;
49880;SDS011;52691;54.130;16.178;2022-12-18T07:26:14;9.68;;;5.20;;
49880;SDS011;52691;54.130;16.178;2022-12-18T07:28:42;12.50;;;5.62;;
49880;SDS011;52691;54.130;16.178;2022-12-18T07:31:14;12.07;;;5.50;;
49880;SDS011;52691;54.130;16.178;2022-12-18T07:33:38;11.78;;;6.05;;
49880;SDS011;52691;54.130;16.178;2022-12-18T07:39:56;28.98;;;22.35;;
